createdAt,value
2018-07-11T10:23:47.898Z,8.30
2018-07-11T10:26:16.393Z,8.33
2018-07-11T10:28:44.897Z,8.63
2018-07-11T10:31:13.457Z,8.13
2018-07-11T10:33:41.931Z,7.57
2018-07-11T10:36:10.359Z,8.67
2018-07-11T10:38:38.919Z,8.57
2018-07-11T10:41:07.412Z,7.27
2018-07-11T10:43:35.879Z,7.47
2018-07-11T10:46:04.327Z,8.10
2018-07-11T10:48:32.842Z,8.30
2018-07-11T10:51:01.320Z,6.87
2018-07-11T10:53:30.167Z,8.07
2018-07-11T10:55:58.692Z,6.83
2018-07-11T10:58:26.882Z,8.40
2018-07-11T11:01:05.697Z,6.90
2018-07-11T11:03:30.448Z,6.33
2018-07-11T11:05:58.944Z,7.80
2018-07-11T11:08:28.283Z,6.33
2018-07-11T11:10:56.807Z,6.50
2018-07-11T11:13:25.732Z,5.53
2018-07-11T11:15:54.905Z,5.40
2018-07-11T11:18:23.930Z,4.47
2018-07-11T11:20:53.639Z,5.20
2018-07-11T11:23:21.942Z,4.70
2018-07-11T11:25:50.558Z,4.97
2018-07-11T11:28:18.984Z,3.10
2018-07-11T11:30:47.131Z,3.03
2018-07-11T11:33:15.731Z,2.63
2018-07-11T11:35:43.982Z,2.70
2018-07-11T11:38:12.386Z,3.03
2018-07-11T11:40:40.895Z,2.30
2018-07-11T11:43:09.391Z,2.37
2018-07-11T11:45:37.916Z,2.03
2018-07-11T11:48:06.437Z,2.23
2018-07-11T11:50:34.891Z,2.40
2018-07-11T11:53:03.373Z,2.23
2018-07-11T11:55:31.827Z,2.60
2018-07-11T11:58:00.423Z,2.43
2018-07-11T12:00:28.875Z,2.07
2018-07-11T12:02:57.408Z,2.37
2018-07-11T12:05:25.621Z,2.40
2018-07-11T12:07:54.173Z,2.03
2018-07-11T12:10:22.703Z,2.30
2018-07-11T12:12:51.247Z,2.13
2018-07-11T12:15:19.684Z,1.93
2018-07-11T12:17:48.205Z,3.17
2018-07-11T12:20:16.718Z,1.90
2018-07-11T12:22:45.352Z,1.60
2018-07-11T12:25:14.287Z,1.97
2018-07-11T12:27:43.613Z,1.53
2018-07-11T12:30:12.456Z,1.83
2018-07-11T12:32:40.966Z,1.87
2018-07-11T12:35:09.478Z,1.80
2018-07-11T12:37:38.060Z,2.03
2018-07-11T12:40:08.285Z,1.87
2018-07-11T12:42:36.927Z,1.67
2018-07-11T12:45:05.842Z,1.77
2018-07-11T12:47:39.951Z,1.63
2018-07-11T12:50:08.579Z,1.40
2018-07-11T12:52:37.095Z,1.87
2018-07-11T12:55:05.601Z,1.73
2018-07-11T12:57:34.177Z,1.33
2018-07-11T13:00:02.716Z,1.83
2018-07-11T13:02:31.251Z,1.50
2018-07-11T13:04:59.847Z,2.07
2018-07-11T13:07:28.543Z,1.47
2018-07-11T13:09:58.361Z,1.70
2018-07-11T13:12:26.922Z,1.77
2018-07-11T13:14:55.514Z,1.80
2018-07-11T13:17:24.360Z,1.50
2018-07-11T13:19:52.535Z,1.77
2018-07-11T13:22:21.050Z,1.47
2018-07-11T13:24:50.117Z,1.80
2018-07-11T13:27:20.164Z,1.90
2018-07-11T13:29:48.753Z,1.40
2018-07-11T13:32:17.345Z,1.33
2018-07-11T13:34:45.855Z,1.70
2018-07-11T13:37:14.341Z,2.13
2018-07-11T13:39:42.844Z,2.10
2018-07-11T13:42:11.927Z,2.53
2018-07-11T13:44:40.397Z,1.97
2018-07-11T13:47:14.219Z,2.53
2018-07-11T13:49:42.746Z,1.90
2018-07-11T13:52:11.380Z,2.50
2018-07-11T13:54:39.947Z,3.53
2018-07-11T13:57:08.494Z,2.20
2018-07-11T13:59:37.084Z,2.57
2018-07-11T14:02:05.632Z,1.63
2018-07-11T14:04:34.183Z,3.07
2018-07-11T14:07:02.715Z,1.60
2018-07-11T14:09:31.187Z,1.93
2018-07-11T14:11:59.479Z,2.97
2018-07-11T14:14:27.935Z,2.10
2018-07-11T14:16:57.041Z,2.87
2018-07-11T14:19:25.211Z,2.70
2018-07-11T14:21:54.066Z,2.67
2018-07-11T14:24:22.995Z,1.70
2018-07-11T14:26:51.258Z,2.20
2018-07-11T14:29:21.659Z,3.57
2018-07-11T14:31:52.331Z,3.03
2018-07-11T14:34:20.746Z,2.60
2018-07-11T14:36:49.287Z,3.40
2018-07-11T14:39:17.747Z,2.33
2018-07-11T14:41:46.292Z,2.50
2018-07-11T14:44:15.240Z,1.90
2018-07-11T14:46:43.823Z,3.07
2018-07-11T14:49:15.032Z,3.00
2018-07-11T14:51:43.687Z,2.90
2018-07-11T14:54:12.175Z,2.70
2018-07-11T14:56:40.791Z,3.10
2018-07-11T14:59:09.355Z,2.67
2018-07-11T15:01:37.888Z,2.73
2018-07-11T15:04:06.659Z,2.33
2018-07-11T15:06:35.215Z,3.53
2018-07-11T15:09:05.314Z,2.60
2018-07-11T15:11:33.709Z,3.10
2018-07-11T15:14:02.356Z,3.70
2018-07-11T15:16:30.650Z,4.40
2018-07-11T15:19:00.186Z,5.00
2018-07-11T15:21:29.564Z,5.40
2018-07-11T15:23:58.208Z,5.77
2018-07-11T15:26:26.784Z,6.13
2018-07-11T15:28:55.345Z,6.30
2018-07-11T15:31:23.953Z,5.90
2018-07-11T15:33:53.283Z,6.60
2018-07-11T15:36:21.483Z,7.20
2018-07-11T15:38:50.110Z,7.07
2018-07-11T15:41:18.663Z,6.87
2018-07-11T15:43:47.563Z,12.00
2018-07-11T15:46:16.468Z,13.20
2018-07-11T19:59:57.971Z,12.40
2018-07-11T20:02:26.546Z,12.70
2018-07-11T20:04:55.073Z,12.17
2018-07-11T20:07:23.687Z,11.27
2018-07-11T20:09:52.277Z,15.67
2018-07-11T20:12:20.824Z,13.07
2018-07-11T20:14:49.382Z,12.23
2018-07-11T20:17:17.913Z,30.70
2018-07-11T20:19:46.405Z,12.60
2018-07-11T20:22:14.588Z,12.10
2018-07-11T20:24:42.750Z,11.60
2018-07-11T20:27:11.272Z,13.30
2018-07-11T20:29:39.835Z,12.60
2018-07-11T20:32:08.305Z,14.23
2018-07-11T20:34:36.780Z,13.60
2018-07-11T20:37:04.955Z,15.17
2018-07-11T20:39:33.429Z,14.23
2018-07-11T20:42:01.984Z,13.67
2018-07-11T20:44:30.695Z,13.43
2018-07-11T20:46:59.241Z,14.40
2018-07-11T20:49:34.911Z,13.97
2018-07-11T20:52:05.148Z,12.67
2018-07-11T20:55:36.871Z,14.50
2018-07-11T20:58:16.615Z,15.13
2018-07-11T21:00:56.341Z,14.80
2018-07-11T21:03:36.029Z,13.67
2018-07-11T21:08:19.812Z,14.77
2018-07-11T21:11:11.048Z,16.37
2018-07-11T21:13:44.655Z,18.43
2018-07-11T21:16:31.662Z,20.50
2018-07-11T21:19:02.683Z,21.70
2018-07-11T21:21:32.037Z,24.03
2018-07-11T21:24:00.579Z,21.70
2018-07-11T21:26:29.092Z,20.70
2018-07-11T21:28:57.539Z,18.60
2018-07-11T21:31:26.102Z,21.03
2018-07-11T21:33:54.588Z,22.20
2018-07-11T21:36:23.105Z,22.70
2018-07-11T21:38:52.248Z,24.00
2018-07-11T21:41:20.783Z,23.20
2018-07-11T21:43:49.499Z,24.80
2018-07-11T21:46:18.091Z,24.37
2018-07-11T21:48:46.727Z,26.70
2018-07-11T21:51:15.018Z,24.90
2018-07-11T21:53:43.512Z,30.10
2018-07-11T21:56:12.031Z,27.30
2018-07-11T21:58:40.543Z,25.60
2018-07-11T22:01:11.281Z,25.40
2018-07-11T22:03:39.780Z,26.47
2018-07-11T22:06:08.243Z,26.07
2018-07-11T22:08:36.711Z,26.70
2018-07-11T22:11:05.283Z,25.83
2018-07-11T22:13:33.778Z,25.77
2018-07-11T22:16:02.275Z,27.00
2018-07-11T22:18:41.580Z,26.27
2018-07-11T22:21:09.910Z,27.83
2018-07-11T22:23:37.211Z,28.07
2018-07-11T22:26:04.539Z,27.60
2018-07-11T22:28:31.832Z,29.50
2018-07-11T22:30:59.103Z,30.23
2018-07-11T22:33:26.403Z,30.37
2018-07-11T22:35:53.700Z,51.07
2018-07-11T22:38:20.992Z,31.50
2018-07-11T22:40:48.269Z,31.97
2018-07-11T22:43:15.563Z,29.13
2018-07-11T22:45:42.869Z,29.67
2018-07-11T22:48:10.170Z,27.70
2018-07-11T22:50:37.482Z,25.17
2018-07-11T22:53:04.760Z,23.90
2018-07-11T22:55:32.083Z,24.67
2018-07-11T22:57:59.622Z,22.00
2018-07-11T23:00:26.923Z,20.17
2018-07-11T23:02:54.200Z,17.47
2018-07-11T23:05:21.516Z,17.93
2018-07-11T23:07:48.847Z,17.30
2018-07-11T23:10:16.147Z,16.30
2018-07-11T23:12:43.425Z,16.10
2018-07-11T23:15:11.062Z,15.97
2018-07-11T23:17:38.339Z,18.40
2018-07-11T23:20:05.628Z,16.57
2018-07-11T23:22:32.931Z,16.37
2018-07-11T23:25:00.203Z,17.07
2018-07-11T23:27:27.497Z,17.07
2018-07-11T23:29:54.779Z,19.40
2018-07-11T23:32:22.072Z,18.13
2018-07-11T23:34:49.624Z,17.60
2018-07-11T23:37:16.919Z,17.17
2018-07-11T23:39:44.212Z,17.63
2018-07-11T23:42:11.517Z,18.33
2018-07-11T23:44:38.807Z,16.90
2018-07-11T23:47:07.101Z,19.20
2018-07-11T23:49:34.427Z,17.50
2018-07-11T23:52:01.695Z,19.13
2018-07-11T23:54:28.989Z,17.80
2018-07-11T23:56:56.262Z,18.37
2018-07-11T23:59:23.562Z,20.50
